Time;durP1;ratioP1;P1;durP2;ratioP2;P2;SDS_P1;SDS_P2;PMS_P1;PMS_P2;Temp;Humidity;BMP_temperature;BMP_pressure;BME280_temperature;BME280_humidity;BME280_pressure;Samples;Min_cycle;Max_cycle;Signal;HPM_P1;HPM_P2
2021/11/01 00:02:02;;;;;;;10.82;8.43;;;8.90;99.90;;;;;;5099842;28;20197;-51
2021/11/01 00:04:30;;;;;;;10.43;7.32;;;8.90;99.90;;;;;;5094730;28;20244;-56
2021/11/01 00:06:57;;;;;;;10.52;8.60;;;8.90;99.90;;;;;;5087139;28;20194;-54
2021/11/01 00:09:28;;;;;;;10.43;8.02;;;8.90;99.90;;;;;;5101458;28;20223;-51
2021/11/01 00:11:56;;;;;;;13.32;8.05;;;9.00;99.90;;;;;;5100692;28;20202;-53
2021/11/01 00:14:24;;;;;;;14.90;9.73;;;9.00;99.90;;;;;;5098373;28;20511;-54
2021/11/01 00:16:52;;;;;;;15.20;9.40;;;9.10;99.90;;;;;;5097959;28;20203;-55
2021/11/01 00:19:19;;;;;;;12.40;8.98;;;9.00;99.90;;;;;;5097932;28;20331;-54
2021/11/01 00:21:46;;;;;;;10.55;8.52;;;8.90;99.90;;;;;;5095623;28;20214;-52
2021/11/01 00:24:13;;;;;;;10.95;8.15;;;8.90;99.90;;;;;;5102335;28;20280;-51
2021/11/01 00:26:41;;;;;;;19.42;9.50;;;8.90;99.90;;;;;;5100470;28;20217;-54
2021/11/01 00:29:10;;;;;;;15.82;9.63;;;9.10;99.90;;;;;;5101137;28;20276;-53
2021/11/01 00:31:37;;;;;;;12.57;8.57;;;9.30;99.90;;;;;;5095358;28;20241;-50
2021/11/01 00:34:05;;;;;;;12.85;8.90;;;9.10;99.90;;;;;;5096725;28;20237;-56
2021/11/01 00:36:32;;;;;;;12.23;9.75;;;9.10;99.90;;;;;;5101329;28;20202;-53
2021/11/01 00:38:59;;;;;;;17.05;9.60;;;8.90;99.90;;;;;;5100527;28;20252;-54
2021/11/01 00:41:26;;;;;;;14.07;10.07;;;8.70;99.90;;;;;;5096933;28;20199;-52
2021/11/01 00:43:53;;;;;;;15.55;11.35;;;8.70;99.90;;;;;;5095518;28;20202;-53
2021/11/01 00:46:21;;;;;;;14.45;10.68;;;8.70;99.90;;;;;;5092985;28;20198;-53
2021/11/01 00:48:49;;;;;;;12.45;8.63;;;8.50;99.90;;;;;;5087354;28;20314;-53
2021/11/01 00:51:17;;;;;;;12.73;9.40;;;8.30;99.90;;;;;;5098183;28;20229;-53
2021/11/01 00:53:47;;;;;;;14.98;8.80;;;8.30;99.90;;;;;;5100891;28;20203;-56
2021/11/01 00:56:16;;;;;;;12.73;8.70;;;8.10;99.90;;;;;;5100848;28;20214;-53
2021/11/01 00:58:44;;;;;;;13.23;10.05;;;8.20;99.90;;;;;;5086981;28;20610;-52
2021/11/01 01:01:14;;;;;;;10.18;8.60;;;8.20;99.90;;;;;;5088487;28;20502;-53
2021/11/01 01:03:44;;;;;;;9.63;8.63;;;8.20;99.90;;;;;;5100222;28;20186;-51
2021/11/01 01:06:12;;;;;;;14.43;10.30;;;8.20;99.90;;;;;;5101070;28;20202;-52
2021/11/01 01:08:40;;;;;;;9.75;8.00;;;8.10;99.90;;;;;;5118544;22;20198;-47
2021/11/01 01:11:08;;;;;;;16.70;9.10;;;8.20;99.90;;;;;;5068565;28;20511;-48
2021/11/01 01:13:36;;;;;;;7.95;7.03;;;8.20;99.90;;;;;;5067316;28;20199;-47
2021/11/01 01:18:38;;;;;;;9.38;8.43;;;8.50;99.90;;;;;;5070218;28;20246;-49
2021/11/01 01:23:53;;;;;;;11.23;7.93;;;8.50;99.90;;;;;;5077002;28;20246;-49
2021/11/01 01:26:20;;;;;;;13.25;7.63;;;8.70;99.90;;;;;;5078954;28;20210;-48
2021/11/01 01:28:48;;;;;;;11.10;8.02;;;8.80;99.90;;;;;;5068042;28;20231;-50
2021/11/01 01:31:16;;;;;;;10.68;8.65;;;8.80;99.90;;;;;;5077175;28;20230;-49
2021/11/01 01:33:44;;;;;;;12.35;8.77;;;8.80;99.90;;;;;;5079512;28;20332;-50
2021/11/01 01:36:11;;;;;;;10.05;8.50;;;8.80;99.90;;;;;;5074222;28;20204;-47
2021/11/01 01:38:39;;;;;;;13.10;9.27;;;8.80;99.90;;;;;;5079565;28;20223;-52
2021/11/01 01:41:33;;;;;;;12.77;7.78;;;8.80;99.90;;;;;;5079358;28;20234;-52
2021/11/01 01:44:02;;;;;;;12.07;9.80;;;8.70;99.90;;;;;;5077472;28;20245;-49
2021/11/01 01:46:30;;;;;;;9.98;8.20;;;8.80;99.90;;;;;;5071794;28;20509;-51
2021/11/01 01:48:58;;;;;;;12.50;8.38;;;8.80;99.90;;;;;;5070676;28;20222;-47
2021/11/01 01:51:28;;;;;;;12.07;8.40;;;8.70;99.90;;;;;;5074435;28;20203;-47
2021/11/01 01:53:56;;;;;;;10.70;9.55;;;8.90;99.90;;;;;;5078443;28;20198;-52
2021/11/01 01:56:25;;;;;;;12.60;8.93;;;8.80;99.90;;;;;;5078464;28;20226;-47
2021/11/01 01:59:01;;;;;;;16.65;9.35;;;8.80;99.90;;;;;;5066261;28;20287;-48
2021/11/01 02:01:28;;;;;;;9.90;8.00;;;8.80;99.90;;;;;;5050149;28;20199;-54
2021/11/01 02:03:56;;;;;;;13.23;8.48;;;8.70;99.90;;;;;;5078890;28;20235;-46
2021/11/01 02:06:42;;;;;;;10.02;8.45;;;8.60;99.90;;;;;;5080250;28;20206;-49
2021/11/01 02:09:30;;;;;;;9.43;7.55;;;8.60;99.90;;;;;;5081097;28;20235;-50
2021/11/01 02:12:02;;;;;;;11.45;8.77;;;8.50;99.90;;;;;;5080575;28;20191;-51
2021/11/01 02:14:50;;;;;;;12.55;9.38;;;8.50;99.90;;;;;;5080988;28;20211;-50
2021/11/01 02:17:44;;;;;;;10.68;8.88;;;8.60;99.90;;;;;;5071930;28;20515;-47
2021/11/01 02:20:18;;;;;;;10.40;7.68;;;8.50;99.90;;;;;;5068622;28;20234;-45
2021/11/01 02:23:16;;;;;;;11.25;7.80;;;8.50;99.90;;;;;;5085832;28;20194;-49
2021/11/01 02:25:49;;;;;;;12.55;8.73;;;8.40;99.90;;;;;;5073241;28;20203;-45
2021/11/01 02:28:19;;;;;;;8.32;7.32;;;8.40;99.90;;;;;;5079460;28;20302;-50
2021/11/01 02:30:49;;;;;;;11.50;7.90;;;8.30;99.90;;;;;;5082476;28;20309;-46
2021/11/01 02:33:18;;;;;;;8.65;6.97;;;8.40;99.90;;;;;;5075988;28;20199;-50
2021/11/01 02:35:46;;;;;;;11.68;9.30;;;8.60;99.90;;;;;;5080180;28;20232;-46
2021/11/01 02:38:15;;;;;;;12.13;7.97;;;8.70;99.90;;;;;;5071902;28;20196;-47
2021/11/01 02:40:44;;;;;;;14.82;8.45;;;8.70;99.90;;;;;;5074889;28;20449;-49
2021/11/01 02:43:14;;;;;;;12.23;8.60;;;8.70;99.90;;;;;;5061511;28;20203;-47
2021/11/01 02:45:41;;;;;;;10.68;8.95;;;8.70;99.90;;;;;;5079023;28;20286;-47
2021/11/01 02:48:09;;;;;;;9.18;7.30;;;8.50;99.90;;;;;;5080301;28;20496;-46
2021/11/01 02:50:37;;;;;;;10.90;9.52;;;8.60;99.90;;;;;;5072713;28;20231;-50
2021/11/01 02:53:05;;;;;;;13.13;9.45;;;8.60;99.90;;;;;;5060108;28;20245;-46
2021/11/01 02:55:34;;;;;;;13.50;9.77;;;8.50;99.90;;;;;;5071529;28;20204;-50
2021/11/01 02:58:01;;;;;;;10.07;7.90;;;8.40;99.90;;;;;;5081539;28;20199;-49
2021/11/01 03:00:29;;;;;;;15.18;9.93;;;8.50;99.90;;;;;;5069132;28;20281;-52
2021/11/01 03:02:57;;;;;;;11.50;7.95;;;8.40;99.90;;;;;;5076064;28;20213;-51
2021/11/01 03:05:26;;;;;;;10.90;8.63;;;8.20;99.90;;;;;;5076248;28;20242;-53
2021/11/01 03:07:56;;;;;;;13.50;8.98;;;8.20;99.90;;;;;;5077064;28;20199;-51
2021/11/01 03:10:25;;;;;;;12.10;8.55;;;8.10;99.90;;;;;;5084713;28;20550;-52
2021/11/01 03:12:54;;;;;;;15.75;8.00;;;8.10;99.90;;;;;;5082431;28;20256;-49
2021/11/01 03:15:23;;;;;;;9.68;8.75;;;8.10;99.90;;;;;;5079352;28;20203;-50
2021/11/01 03:18:01;;;;;;;12.57;8.02;;;8.10;99.90;;;;;;5073368;28;20245;-46
2021/11/01 03:20:31;;;;;;;11.02;8.93;;;8.10;99.90;;;;;;5072446;28;20232;-50
2021/11/01 03:23:06;;;;;;;12.93;8.70;;;8.10;99.90;;;;;;5082089;28;20237;-47
2021/11/01 03:25:40;;;;;;;13.57;10.13;;;8.10;99.90;;;;;;5082074;28;20293;-51
2021/11/01 03:28:10;;;;;;;12.80;9.25;;;8.10;99.90;;;;;;5075714;28;20211;-50
2021/11/01 03:30:38;;;;;;;11.65;7.97;;;8.10;99.90;;;;;;5081694;28;20223;-46
2021/11/01 03:33:07;;;;;;;13.07;9.45;;;8.20;99.90;;;;;;5074727;28;20227;-50
2021/11/01 03:35:36;;;;;;;11.23;9.43;;;8.30;99.90;;;;;;5079775;28;20210;-50
2021/11/01 03:38:04;;;;;;;12.57;8.43;;;8.10;99.90;;;;;;5076416;28;20204;-48
2021/11/01 03:40:34;;;;;;;12.80;9.93;;;8.20;99.90;;;;;;5072043;28;20285;-49
2021/11/01 03:43:04;;;;;;;10.27;8.45;;;8.20;99.90;;;;;;5069694;28;20199;-47
2021/11/01 03:45:34;;;;;;;11.80;9.93;;;8.30;99.90;;;;;;5076139;28;20198;-49
2021/11/01 03:48:07;;;;;;;11.75;8.40;;;8.40;99.90;;;;;;5083765;28;20483;-53
2021/11/01 03:50:42;;;;;;;13.00;9.13;;;8.50;99.90;;;;;;5080889;28;20223;-51
2021/11/01 03:53:10;;;;;;;11.70;8.55;;;8.40;99.90;;;;;;5079768;28;20198;-48
2021/11/01 03:55:37;;;;;;;12.75;8.10;;;8.40;99.90;;;;;;5083779;28;20207;-50
2021/11/01 03:58:05;;;;;;;13.38;9.10;;;8.40;99.90;;;;;;5072877;28;20198;-50
2021/11/01 04:00:35;;;;;;;13.93;9.48;;;8.30;99.90;;;;;;5075711;28;20232;-45
2021/11/01 04:03:04;;;;;;;13.25;8.35;;;8.40;99.90;;;;;;5079453;28;20195;-51
2021/11/01 04:05:31;;;;;;;13.50;9.80;;;8.40;99.90;;;;;;5081607;28;20253;-47
2021/11/01 04:07:58;;;;;;;11.48;9.60;;;8.50;99.90;;;;;;5083141;28;20494;-47
2021/11/01 04:10:26;;;;;;;12.38;9.45;;;8.40;99.90;;;;;;5081386;28;20232;-54
2021/11/01 04:12:54;;;;;;;14.20;10.77;;;8.40;99.90;;;;;;5073143;28;20203;-52
2021/11/01 04:15:24;;;;;;;11.73;9.60;;;8.30;99.90;;;;;;5078738;28;20237;-50
2021/11/01 04:17:57;;;;;;;11.55;9.27;;;8.30;99.90;;;;;;5086225;28;20248;-46
2021/11/01 04:20:49;;;;;;;13.05;9.95;;;8.20;99.90;;;;;;5066713;28;20239;-53
2021/11/01 04:23:17;;;;;;;11.38;9.88;;;8.20;99.90;;;;;;5085406;28;20408;-51
2021/11/01 04:25:45;;;;;;;12.93;8.70;;;8.20;99.90;;;;;;5067626;28;20258;-49
2021/11/01 04:28:12;;;;;;;10.23;8.52;;;8.20;99.90;;;;;;5071269;28;20496;-47
2021/11/01 04:30:42;;;;;;;11.43;9.40;;;8.40;99.90;;;;;;5081651;28;20224;-51
2021/11/01 04:33:13;;;;;;;14.13;9.82;;;8.50;99.90;;;;;;5077164;28;20256;-47
2021/11/01 04:35:41;;;;;;;12.05;8.52;;;8.60;99.90;;;;;;5080908;28;20392;-44
2021/11/01 04:38:23;;;;;;;14.80;9.23;;;8.60;99.90;;;;;;5074588;28;20199;-55
2021/11/01 04:41:12;;;;;;;10.02;9.02;;;8.80;99.90;;;;;;5083891;28;20226;-51
2021/11/01 04:54:56;;;;;;;10.35;8.80;;;9.30;99.90;;;;;;5088039;28;20244;-45
2021/11/01 04:57:25;;;;;;;10.40;7.50;;;9.30;99.90;;;;;;5058249;28;20487;-50
2021/11/01 04:59:53;;;;;;;12.90;8.68;;;9.40;99.90;;;;;;5080297;28;20286;-49
2021/11/01 05:02:22;;;;;;;11.38;9.63;;;9.50;99.90;;;;;;5066621;28;20548;-50
2021/11/01 05:04:50;;;;;;;10.02;8.27;;;9.50;99.90;;;;;;5080265;28;20225;-49
2021/11/01 05:07:18;;;;;;;13.00;8.38;;;9.60;99.90;;;;;;5085608;28;20247;-48
2021/11/01 05:12:26;;;;;;;12.45;8.95;;;9.70;99.90;;;;;;5082795;28;20260;-49
2021/11/01 05:25:38;;;;;;;11.23;8.15;;;9.70;99.90;;;;;;5080351;28;20200;-51
2021/11/01 05:35:33;;;;;;;15.30;9.90;;;9.50;99.90;;;;;;5077301;28;20204;-51
2021/11/01 05:38:01;;;;;;;12.13;8.85;;;9.30;99.90;;;;;;5074512;28;20407;-49
2021/11/01 05:40:28;;;;;;;14.13;9.15;;;9.30;99.90;;;;;;5079386;28;20497;-51
2021/11/01 05:42:56;;;;;;;11.48;9.25;;;9.20;99.90;;;;;;5072351;28;20195;-47
2021/11/01 05:45:23;;;;;;;12.00;9.82;;;9.20;99.90;;;;;;5068109;28;20275;-50
2021/11/01 05:47:58;;;;;;;17.73;11.10;;;9.20;99.90;;;;;;5084238;28;20201;-50
2021/11/01 05:50:28;;;;;;;15.50;9.90;;;9.10;99.90;;;;;;5075089;28;20286;-46
2021/11/01 05:52:57;;;;;;;12.43;10.75;;;9.10;99.90;;;;;;5074325;28;20494;-45
2021/11/01 06:03:26;;;;;;;12.82;9.75;;;9.40;99.90;;;;;;5078827;28;20292;-49
2021/11/01 06:13:54;;;;;;;10.38;8.80;;;10.00;99.90;;;;;;5079130;28;20259;-50
2021/11/01 06:16:22;;;;;;;12.70;9.10;;;10.00;99.90;;;;;;5076325;28;20554;-50
2021/11/01 06:18:49;;;;;;;20.60;9.88;;;10.20;99.90;;;;;;5081270;28;20562;-49
2021/11/01 06:21:18;;;;;;;13.32;10.40;;;10.20;99.90;;;;;;5068304;28;20224;-53
2021/11/01 06:23:52;;;;;;;13.63;10.05;;;10.30;99.90;;;;;;5073115;28;20292;-50
2021/11/01 06:26:20;;;;;;;11.68;10.10;;;10.30;99.90;;;;;;5071455;28;20245;-51
2021/11/01 06:28:53;;;;;;;11.55;9.38;;;10.40;99.90;;;;;;5079295;28;20225;-47
2021/11/01 06:31:27;;;;;;;14.73;10.68;;;10.40;99.90;;;;;;5071409;28;20212;-49
2021/11/01 06:34:19;;;;;;;10.70;9.10;;;10.50;99.90;;;;;;5067503;28;20405;-54
2021/11/01 06:45:20;;;;;;;12.85;9.57;;;10.80;99.90;;;;;;5080851;28;20195;-50
2021/11/01 06:50:52;;;;;;;13.95;9.82;;;10.90;99.90;;;;;;5079880;28;20221;-52
2021/11/01 07:20:23;;;;;;;12.23;8.75;;;12.20;99.90;;;;;;5083450;28;20230;-43
2021/11/01 07:23:27;;;;;;;8.20;7.43;;;12.90;99.90;;;;;;5082013;28;20439;-46
2021/11/01 08:21:41;;;;;;;11.47;8.97;;;20.10;97.70;;;;;;5072344;28;20454;-51
2021/11/01 08:29:52;;;;;;;11.13;9.07;;;21.00;95.50;;;;;;5080562;28;20484;-49
2021/11/01 09:02:07;;;;;;;9.80;7.73;;;18.30;97.20;;;;;;5069401;28;20504;-52
2021/11/01 09:04:46;;;;;;;8.80;6.87;;;17.90;98.30;;;;;;5076114;28;20673;-50
2021/11/01 09:20:38;;;;;;;12.33;8.03;;;16.90;99.70;;;;;;5069526;28;20579;-50
2021/11/01 09:28:11;;;;;;;9.97;7.50;;;16.60;99.60;;;;;;5079854;28;20440;-54
2021/11/01 09:39:05;;;;;;;8.50;7.30;;;16.70;99.70;;;;;;5078952;28;20472;-49
2021/11/01 09:41:33;;;;;;;9.13;7.03;;;16.60;99.80;;;;;;5069257;28;20487;-53
2021/11/01 09:44:08;;;;;;;13.47;8.17;;;16.60;99.90;;;;;;5076112;28;20438;-47
2021/11/01 09:46:35;;;;;;;9.13;7.67;;;16.80;99.30;;;;;;5053004;28;20441;-47
2021/11/01 09:49:15;;;;;;;10.00;8.60;;;16.70;99.50;;;;;;5075293;28;20434;-51
2021/11/01 09:51:54;;;;;;;8.83;7.93;;;16.70;99.90;;;;;;5076262;28;20749;-49
2021/11/01 09:54:25;;;;;;;9.00;8.03;;;16.70;99.90;;;;;;5077993;28;20438;-50
2021/11/01 09:57:08;;;;;;;10.00;7.13;;;16.70;99.90;;;;;;5091098;28;20505;-48
2021/11/01 09:59:39;;;;;;;8.57;7.77;;;16.70;99.60;;;;;;5076878;28;20453;-49
2021/11/01 10:02:11;;;;;;;11.93;7.30;;;16.70;99.70;;;;;;5080061;28;20461;-52
2021/11/01 10:04:42;;;;;;;7.17;6.50;;;16.90;99.50;;;;;;5079957;28;20413;-43
2021/11/01 10:07:19;;;;;;;10.00;7.93;;;16.90;99.30;;;;;;5085773;28;20416;-49
2021/11/01 10:09:55;;;;;;;7.50;6.80;;;16.80;99.20;;;;;;5079333;28;20436;-54
2021/11/01 10:12:32;;;;;;;6.87;6.27;;;16.80;99.40;;;;;;5076754;28;20570;-48
2021/11/01 10:18:07;;;;;;;6.37;5.77;;;16.90;99.40;;;;;;5074299;28;21069;-46
2021/11/01 10:20:45;;;;;;;7.53;6.70;;;17.00;98.90;;;;;;5080281;28;20454;-52
2021/11/01 10:23:25;;;;;;;7.93;7.17;;;16.90;98.70;;;;;;5081529;28;20434;-49
2021/11/01 10:26:11;;;;;;;7.10;6.40;;;17.00;99.00;;;;;;5079618;28;20447;-52
2021/11/01 10:28:39;;;;;;;7.53;6.77;;;17.10;98.70;;;;;;5078407;28;20457;-51
2021/11/01 10:31:17;;;;;;;7.93;6.43;;;17.10;98.60;;;;;;5077870;28;20405;-46
2021/11/01 10:33:46;;;;;;;7.67;5.60;;;17.20;98.50;;;;;;5066079;28;20761;-51
2021/11/01 10:36:26;;;;;;;6.87;5.90;;;17.10;98.00;;;;;;5071031;28;20419;-54
2021/11/01 10:39:11;;;;;;;6.57;5.97;;;17.10;97.90;;;;;;5074653;28;20453;-50
2021/11/01 11:12:17;;;;;;;6.00;5.33;;;17.50;97.20;;;;;;5080104;28;20555;-49
2021/11/01 11:14:50;;;;;;;5.70;5.20;;;17.60;96.70;;;;;;5076480;28;20447;-51
2021/11/01 11:25:36;;;;;;;9.70;7.67;;;17.70;97.10;;;;;;5073750;28;20658;-56
2021/11/01 11:28:15;;;;;;;7.80;7.10;;;17.80;96.70;;;;;;5080704;28;20431;-50
2021/11/01 11:31:30;;;;;;;6.83;6.13;;;17.60;96.60;;;;;;5061555;28;20818;-50
2021/11/01 11:37:22;;;;;;;7.17;6.47;;;17.60;97.20;;;;;;5081409;28;20477;-49
2021/11/01 11:40:04;;;;;;;7.27;6.37;;;17.70;97.40;;;;;;5070991;28;20449;-53
2021/11/01 11:48:34;;;;;;;7.50;6.03;;;17.80;97.20;;;;;;5062769;28;20406;-50
2021/11/01 11:51:06;;;;;;;6.57;5.97;;;17.60;97.10;;;;;;5069065;28;20966;-51
2021/11/01 11:53:34;;;;;;;6.87;5.80;;;17.60;97.20;;;;;;5078268;28;20418;-46
2021/11/01 11:56:11;;;;;;;7.60;6.13;;;17.60;97.70;;;;;;5087714;28;20446;-46
2021/11/01 11:58:50;;;;;;;8.43;7.17;;;17.80;97.70;;;;;;5075225;28;20409;-46
2021/11/01 12:01:40;;;;;;;7.90;6.97;;;17.90;97.30;;;;;;5077567;28;20657;-48
2021/11/01 12:04:22;;;;;;;7.13;6.43;;;17.90;97.40;;;;;;5065223;28;20426;-53
2021/11/01 12:07:00;;;;;;;6.43;5.93;;;18.00;97.70;;;;;;5081784;28;20452;-52
2021/11/01 12:17:30;;;;;;;6.40;5.60;;;18.10;96.90;;;;;;5084620;28;20414;-53
2021/11/01 12:20:04;;;;;;;7.43;6.40;;;18.10;96.90;;;;;;5072620;28;20469;-50
2021/11/01 12:22:35;;;;;;;8.10;6.80;;;18.10;97.20;;;;;;5079774;28;20448;-48
2021/11/01 12:25:07;;;;;;;8.67;5.70;;;18.20;97.30;;;;;;5071332;28;20646;-47
2021/11/01 12:27:37;;;;;;;10.80;6.50;;;18.30;96.90;;;;;;5051503;28;20445;-48
2021/11/01 12:30:10;;;;;;;7.63;7.00;;;18.20;97.20;;;;;;5072157;28;20646;-46
2021/11/01 12:32:39;;;;;;;9.07;7.17;;;18.10;97.20;;;;;;5072829;28;20477;-49
2021/11/01 12:35:22;;;;;;;10.13;5.87;;;18.00;97.50;;;;;;5080800;28;20779;-51
2021/11/01 12:37:53;;;;;;;8.10;7.30;;;18.00;97.40;;;;;;5077119;28;20476;-54
2021/11/01 12:57:27;;;;;;;9.80;6.60;;;18.10;97.90;;;;;;5073789;28;20557;-50
2021/11/01 12:59:56;;;;;;;8.63;7.43;;;18.20;97.50;;;;;;5079175;28;20482;-49
2021/11/01 13:02:25;;;;;;;7.50;6.53;;;18.10;97.70;;;;;;5081223;28;20630;-53
2021/11/01 13:04:56;;;;;;;10.70;7.23;;;17.90;97.50;;;;;;5083049;28;20611;-48
2021/11/01 13:10:53;;;;;;;9.27;7.47;;;17.90;97.80;;;;;;5047380;28;20478;-49
2021/11/01 13:19:13;;;;;;;9.83;8.40;;;17.50;98.70;;;;;;5078477;28;20840;-48
2021/11/01 13:21:57;;;;;;;7.70;7.00;;;17.40;98.70;;;;;;5086003;28;20519;-48
2021/11/01 13:27:42;;;;;;;8.77;7.60;;;17.50;99.30;;;;;;5069703;28;20711;-50
2021/11/01 13:38:56;;;;;;;12.67;9.20;;;16.90;99.80;;;;;;5065910;28;20430;-48
2021/11/01 13:41:28;;;;;;;10.03;8.10;;;16.80;99.90;;;;;;5074922;28;20653;-47
2021/11/01 13:44:13;;;;;;;7.90;7.07;;;16.70;99.90;;;;;;5073657;28;20434;-48
2021/11/01 13:46:45;;;;;;;7.83;6.67;;;16.70;99.80;;;;;;5077261;28;20430;-48
2021/11/01 13:49:15;;;;;;;9.43;7.73;;;16.70;99.70;;;;;;5078449;28;20658;-46
2021/11/01 13:51:50;;;;;;;8.57;7.20;;;16.70;99.90;;;;;;5077666;28;20467;-52
2021/11/01 13:56:51;;;;;;;14.00;8.97;;;16.70;99.70;;;;;;5076295;28;20595;-47
2021/11/01 14:02:29;;;;;;;10.00;8.50;;;16.70;99.90;;;;;;5075807;28;20449;-43
2021/11/01 14:13:34;;;;;;;9.30;8.33;;;16.40;99.90;;;;;;5081070;28;20469;-54
2021/11/01 14:16:23;;;;;;;9.23;7.53;;;16.50;99.90;;;;;;5075549;28;20458;-53
2021/11/01 14:30:17;;;;;;;10.80;7.20;;;16.30;99.90;;;;;;5067637;28;20447;-51
2021/11/01 15:16:24;;;;;;;10.27;8.05;;;15.20;99.90;;;;;;5070327;28;20326;-56
2021/11/01 15:19:06;;;;;;;12.30;9.85;;;15.20;99.90;;;;;;5083656;28;20313;-53
2021/11/01 15:26:53;;;;;;;12.98;10.07;;;15.00;99.90;;;;;;5071060;28;20199;-48
2021/11/01 15:35:12;;;;;;;15.75;11.82;;;14.60;99.90;;;;;;5068371;28;20268;-47
2021/11/01 16:18:14;;;;;;;21.75;15.20;;;13.30;99.90;;;;;;5019388;28;20211;-49
2021/11/01 16:20:43;;;;;;;18.83;14.55;;;13.30;99.90;;;;;;5011949;28;20268;-51
2021/11/01 16:23:27;;;;;;;19.90;14.50;;;13.30;99.90;;;;;;5005564;28;20221;-50
2021/11/01 16:25:56;;;;;;;22.85;14.82;;;13.20;99.90;;;;;;5006483;28;20198;-50
2021/11/01 16:28:25;;;;;;;22.33;16.35;;;13.00;99.90;;;;;;5003843;28;20461;-50
2021/11/01 16:33:34;;;;;;;25.83;16.77;;;12.90;99.90;;;;;;5008311;28;20407;-52
2021/11/01 16:36:40;;;;;;;21.90;16.40;;;12.80;99.90;;;;;;5006183;28;20209;-47
2021/11/01 16:39:11;;;;;;;30.52;20.52;;;12.90;99.90;;;;;;5008201;28;20227;-52
2021/11/01 16:41:41;;;;;;;29.23;19.45;;;12.90;99.90;;;;;;5015922;28;20297;-51
2021/11/01 16:44:17;;;;;;;26.15;19.13;;;12.90;99.90;;;;;;5020848;28;20231;-48
2021/11/01 16:46:47;;;;;;;28.83;19.10;;;12.80;99.90;;;;;;5022800;28;20459;-47
2021/11/01 16:49:15;;;;;;;31.20;18.80;;;12.70;99.90;;;;;;5017601;28;20246;-49
2021/11/01 16:51:43;;;;;;;27.23;17.38;;;12.60;99.90;;;;;;5017121;28;20725;-48
2021/11/01 16:54:14;;;;;;;22.70;16.38;;;12.60;99.90;;;;;;5022844;28;20506;-53
2021/11/01 16:57:12;;;;;;;24.95;18.40;;;12.50;99.90;;;;;;5016509;28;20205;-50
2021/11/01 17:00:02;;;;;;;25.35;17.42;;;12.50;99.90;;;;;;5005554;28;20223;-52
2021/11/01 17:02:54;;;;;;;24.73;18.60;;;12.40;99.90;;;;;;5002035;28;20260;-42
2021/11/01 17:36:04;;;;;;;28.42;18.00;;;11.80;99.90;;;;;;5017358;28;20203;-52
2021/11/01 18:24:49;;;;;;;27.90;19.63;;;11.60;99.90;;;;;;5020413;28;20262;-56
2021/11/01 18:43:13;;;;;;;33.80;22.02;;;13.30;99.90;;;;;;5027281;28;20246;-52
2021/11/01 18:51:30;;;;;;;29.15;20.10;;;13.40;99.90;;;;;;5017603;28;20227;-45
2021/11/01 18:54:16;;;;;;;24.40;18.92;;;13.40;99.90;;;;;;5027658;28;20208;-53
2021/11/01 18:56:45;;;;;;;27.70;18.40;;;13.40;99.90;;;;;;5012217;28;20428;-49
2021/11/01 18:59:12;;;;;;;24.63;17.55;;;13.40;99.90;;;;;;5025643;28;20224;-51
2021/11/01 19:01:49;;;;;;;26.17;17.75;;;13.40;99.90;;;;;;5028927;28;20201;-48
2021/11/01 19:04:30;;;;;;;24.52;15.13;;;13.30;99.90;;;;;;5019814;28;20225;-56
2021/11/01 19:07:10;;;;;;;28.23;19.75;;;13.30;99.90;;;;;;5019591;28;20250;-53
2021/11/01 20:05:32;;;;;;;31.50;22.27;;;12.40;99.90;;;;;;5026839;28;20518;-55
2021/11/01 20:08:23;;;;;;;34.05;22.23;;;12.10;99.90;;;;;;5012215;28;20256;-51
2021/11/01 21:24:33;;;;;;;30.80;19.95;;;11.50;99.90;;;;;;5013426;28;20281;-55
2021/11/01 21:27:02;;;;;;;26.38;19.20;;;11.60;99.90;;;;;;5016111;28;20204;-50
2021/11/01 21:29:34;;;;;;;27.92;18.80;;;11.60;99.90;;;;;;5010419;28;20266;-47
2021/11/01 21:32:04;;;;;;;26.05;19.40;;;11.70;99.90;;;;;;5015431;28;20211;-53
2021/11/01 21:34:35;;;;;;;23.15;17.75;;;11.80;99.90;;;;;;5014128;28;20208;-49
2021/11/01 21:37:04;;;;;;;25.70;18.40;;;12.00;99.90;;;;;;5017637;28;20219;-53
2021/11/01 21:39:32;;;;;;;30.75;19.55;;;12.10;99.90;;;;;;5017600;28;20439;-50
2021/11/01 21:42:00;;;;;;;26.50;19.98;;;12.40;99.90;;;;;;5025043;28;20354;-50
2021/11/01 21:44:29;;;;;;;26.23;18.75;;;12.40;99.90;;;;;;5022393;28;20224;-50
2021/11/01 21:46:57;;;;;;;26.98;20.05;;;12.40;99.90;;;;;;5020927;28;20203;-47
2021/11/01 21:49:24;;;;;;;29.73;19.10;;;12.50;99.90;;;;;;5029949;28;20250;-50
2021/11/01 21:51:53;;;;;;;31.00;21.63;;;12.80;99.90;;;;;;5023907;28;20196;-47
2021/11/01 21:54:28;;;;;;;28.27;19.55;;;12.90;99.90;;;;;;5020077;28;20271;-48
2021/11/01 21:57:06;;;;;;;24.20;18.48;;;13.00;99.90;;;;;;5025527;28;20211;-48
2021/11/01 22:21:33;;;;;;;32.30;22.83;;;13.00;99.90;;;;;;5017184;28;20208;-53
2021/11/01 22:42:47;;;;;;;26.98;19.30;;;12.60;99.90;;;;;;5018833;28;20200;-49
2021/11/01 22:45:21;;;;;;;30.92;21.40;;;12.90;99.90;;;;;;5019963;28;20228;-51
2021/11/01 22:58:47;;;;;;;23.15;18.98;;;12.50;99.90;;;;;;5021933;28;20204;-53
2021/11/01 23:01:21;;;;;;;29.35;18.98;;;12.60;99.90;;;;;;5001380;28;20216;-48
2021/11/01 23:04:09;;;;;;;27.60;21.02;;;12.60;99.90;;;;;;5022872;28;20295;-49
2021/11/01 23:31:46;;;;;;;28.33;20.60;;;11.80;99.90;;;;;;5017785;28;20231;-58
2021/11/01 23:34:15;;;;;;;31.10;20.95;;;11.80;99.90;;;;;;5022381;28;20200;-48
2021/11/01 23:36:43;;;;;;;28.63;20.67;;;11.80;99.90;;;;;;5029171;28;20254;-49
2021/11/01 23:39:13;;;;;;;28.98;20.58;;;11.80;99.90;;;;;;5026464;28;20218;-52
2021/11/01 23:41:49;;;;;;;27.50;20.33;;;11.60;99.90;;;;;;5026029;28;20586;-51
2021/11/01 23:44:18;;;;;;;27.73;19.98;;;11.80;99.90;;;;;;5023992;28;20264;-51
2021/11/01 23:46:45;;;;;;;29.20;20.40;;;12.00;99.90;;;;;;5026739;28;20208;-48
2021/11/01 23:49:12;;;;;;;31.00;18.98;;;12.20;99.90;;;;;;5027893;28;20236;-53
2021/11/01 23:51:48;;;;;;;22.08;17.83;;;12.20;99.90;;;;;;5018892;28;20205;-46
2021/11/01 23:56:50;;;;;;;27.48;19.05;;;12.20;99.90;;;;;;5021209;28;20306;-52
2021/11/01 23:59:17;;;;;;;25.90;18.48;;;12.10;99.90;;;;;;5024415;28;20228;-52
